Latest Weather Observations for Brisbane Airport

IDQ60801

Issued at 9:35 pm EST Thursday 23 October 2014 (issued every 30 minutes, with the page automatically refreshed every 10 minutes)

About weather observations | Map of weather stations | Latest weather observations for QLD | Other Formats
Station Details ID: 040842 Name: BRISBANE AERO Lat: -27.39 Lon: 153.13 Height: 4.51 m
Data from the previous 72 hours. | See also: Recent months at Brisbane Airport
Date/Time
EST
Temp
°C
App
Temp
°C
Dew
Point
Rel
Hum
%
Delta-T
°C
Wind Press
QNH
hPa
Press
MSL
hPa
Rain
since 9 am
mm
Dir
 
Spd
km/h
Gust
km/h
Spd
kts
Gust
kts
23/09:30pm 19.7 18.1 13.9 69 3.3 NNE 15 20 8 11 1021.8 - 0.0
23/09:00pm 19.7 18.9 14.1 70 3.2 NNE 11 13 6 7 1021.8 1021.8 0.0
23/08:30pm 20.0 18.1 14.1 69 3.4 NNE 17 20 9 11 1021.2 - 0.0
23/08:00pm 20.4 18.3 13.6 65 3.9 NNE 17 22 9 12 1020.9 - 0.0
23/07:30pm 20.3 17.7 13.3 64 4.0 NNE 19 26 10 14 1020.2 - 0.0
23/07:00pm 20.5 17.2 12.7 61 4.4 NNE 22 30 12 16 1020.0 - 0.0
23/06:30pm 20.2 17.2 13.6 66 3.8 N 22 32 12 17 1019.8 - 0.0
23/06:00pm 20.6 17.8 13.2 62 4.2 N 20 28 11 15 1019.3 1019.3 0.0
23/05:30pm 21.0 17.1 13.3 61 4.4 N 26 32 14 17 1018.9 - 0.0
23/05:00pm 21.9 18.2 13.8 60 4.7 N 26 33 14 18 1018.4 - 0.0
23/04:30pm 22.6 18.4 13.6 56 5.2 N 28 35 15 19 1017.7 - 0.0
23/04:00pm 22.7 18.4 13.3 55 5.4 N 28 33 15 18 1017.7 - 0.0
23/03:30pm 22.8 19.3 14.5 59 4.9 N 26 35 14 19 1017.5 - 0.0
23/03:00pm 23.8 20.7 14.5 56 5.5 NNE 24 30 13 16 1017.5 1017.5 0.0
23/02:30pm 23.5 20.2 14.1 55 5.5 NNE 24 30 13 16 1017.7 - 0.0
23/02:00pm 24.3 20.1 11.0 43 7.4 NNE 24 30 13 16 1018.1 - 0.0
23/01:30pm 24.0 19.2 11.6 45 7.0 NNE 28 33 15 18 1018.7 - 0.0
23/01:00pm 23.7 19.3 11.6 46 6.8 NNE 26 32 14 17 1019.0 - 0.0
23/12:30pm 24.0 19.5 11.5 45 7.0 NNE 26 32 14 17 1019.5 - 0.0
23/12:00pm 23.3 19.2 11.3 46 6.7 NNE 24 30 13 16 1020.1 1020.1 0.0
23/11:30am 23.9 19.6 10.9 44 7.2 NNE 24 30 13 16 1020.6 - 0.0
23/11:00am 23.8 19.8 10.6 43 7.3 N 22 30 12 16 1021.0 - 0.0
23/10:30am 23.0 19.7 9.7 42 7.2 NNE 17 26 9 14 1021.5 - 0.0
23/10:00am 22.0 18.5 10.2 47 6.4 N 19 24 10 13 1021.9 - 0.0
23/09:30am 21.8 19.6 10.9 50 6.0 N 13 22 7 12 1022.3 - 0.0
23/09:00am 22.1 21.3 11.0 49 6.1 NNW 6 17 3 9 1022.5 1022.5 0.0
23/08:30am 20.8 19.9 10.7 52 5.5 WNW 6 9 3 5 1022.7 - 0.0
23/08:00am 20.6 19.1 10.7 53 5.4 SSW 9 13 5 7 1022.9 - 0.0
23/07:30am 20.3 18.9 12.2 59 4.5 SSW 11 15 6 8 1022.8 - 0.0
23/07:00am 18.2 16.8 12.2 68 3.3 SSW 11 13 6 7 1022.5 - 0.0
23/06:30am 16.5 14.8 12.3 76 2.3 SSW 13 17 7 9 1022.4 - 0.0
23/06:00am 14.5 13.4 11.9 84 1.4 SSW 9 11 5 6 1022.2 1022.2 0.0
23/05:30am 13.4 11.7 11.1 86 1.2 SSW 11 13 6 7 1022.0 - 0.0
23/05:00am 12.9 11.2 11.2 89 0.9 SSW 11 15 6 8 1021.9 - 0.0
23/04:30am 13.6 11.5 11.3 86 1.2 SSW 13 17 7 9 1021.8 - 0.0
23/04:00am 13.7 12.1 11.4 86 1.2 SSW 11 15 6 8 1021.7 - 0.0
23/03:30am 14.2 12.2 11.6 84 1.4 SSW 13 15 7 8 1021.5 - 0.0
23/03:00am 14.8 13.3 11.8 82 1.6 SSW 11 13 6 7 1021.5 1021.5 0.0
23/02:30am 15.3 14.3 12.2 82 1.7 SSW 9 11 5 6 1021.6 - 0.0
23/02:00am 15.0 15.6 12.0 82 1.6 CALM 0 0 0 0 1021.6 - 0.0
23/01:30am 15.6 14.9 11.9 78 2.0 ESE 7 9 4 5 1021.8 - 0.0
23/01:00am 18.2 17.5 12.0 67 3.4 ESE 7 9 4 5 1022.2 - 0.0
23/12:30am 18.4 17.7 12.0 66 3.5 E 7 9 4 5 1022.4 - 0.0
23/12:00am 18.6 17.5 12.1 66 3.6 E 9 11 5 6 1022.6 1022.6 0.0
 
Date/Time
EST
Temp
°C
App
Temp
°C
Dew
Point
Rel
Hum
%
Delta-T
°C
Wind Press
QNH
hPa
Press
MSL
hPa
Rain
since 9 am
mm
Dir
 
Spd
km/h
Gust
km/h
Spd
kts
Gust
kts
22/11:30pm 19.0 18.0 12.3 65 3.7 E 9 11 5 6 1022.9 - 0.0
22/11:00pm 19.0 17.9 12.1 64 3.8 E 9 13 5 7 1023.3 - 0.0
22/10:30pm 18.9 18.1 11.6 62 4.0 E 7 13 4 7 1023.5 - 0.0
22/10:00pm 19.2 18.0 11.7 62 4.1 E 9 17 5 9 1023.5 - 0.0
22/09:30pm 19.2 18.0 11.5 61 4.2 E 9 15 5 8 1023.5 - 0.0
22/09:00pm 19.3 18.0 11.4 60 4.3 E 9 17 5 9 1023.5 1023.4 0.0
22/08:30pm 19.3 17.9 12.1 63 4.0 E 11 20 6 11 1023.6 - 0.0
22/08:00pm 19.4 18.3 12.0 62 4.1 E 9 15 5 8 1023.3 - 0.0
22/07:30pm 19.4 17.9 12.0 62 4.1 E 11 19 6 10 1023.2 - 0.0
22/07:00pm 19.5 17.6 11.9 61 4.2 ESE 13 19 7 10 1023.1 - 0.0
22/06:30pm 19.7 17.8 11.9 60 4.3 E 13 22 7 12 1023.1 - 0.0
22/06:00pm 19.9 18.0 11.7 59 4.5 E 13 19 7 10 1022.9 1022.9 0.0
22/05:30pm 20.3 17.9 11.4 56 4.9 E 15 30 8 16 1022.8 - 0.0
22/05:00pm 20.7 17.9 11.2 54 5.2 E 17 28 9 15 1022.6 - 0.0
22/04:30pm 20.6 17.8 11.5 56 5.0 E 17 28 9 15 1022.6 - 0.0
22/04:00pm 21.2 17.8 11.2 53 5.5 ESE 20 37 11 20 1022.4 - 0.0
22/03:30pm 22.1 18.8 10.8 48 6.2 ESE 19 33 10 18 1022.3 - 0.0
22/03:00pm 21.9 17.9 10.5 48 6.2 ESE 22 33 12 18 1022.3 1022.3 0.0
22/02:30pm 22.7 19.3 11.1 48 6.4 ESE 20 37 11 20 1022.4 - 0.0
22/02:00pm 22.8 19.1 11.5 49 6.3 ESE 22 33 12 18 1022.6 - 0.0
22/01:30pm 22.7 18.8 10.7 46 6.6 ESE 22 33 12 18 1022.9 - 0.0
22/01:00pm 22.7 18.4 10.7 46 6.6 ESE 24 37 13 20 1023.2 - 0.0
22/12:30pm 21.9 17.9 10.5 48 6.2 ESE 22 37 12 20 1023.7 - 0.0
22/12:00pm 22.1 18.1 10.6 48 6.3 ESE 22 35 12 19 1024.2 1024.1 0.0
22/11:30am 22.7 19.5 11.1 48 6.4 ESE 19 32 10 17 1024.6 - 0.0
22/11:00am 22.3 19.7 11.9 51 5.8 E 17 26 9 14 1024.9 - 0.0
22/10:30am 21.3 18.2 12.2 56 5.1 ESE 20 32 11 17 1025.1 - 0.0
22/10:00am 22.1 19.3 11.2 50 6.0 ESE 17 28 9 15 1025.5 - 0.0
22/09:30am 21.6 18.2 11.3 52 5.7 SE 20 33 11 18 1025.7 - 0.0
22/09:00am 22.1 19.5 11.9 52 5.7 E 17 26 9 14 1025.6 1025.5 0.0
22/08:30am 21.6 19.8 12.1 54 5.3 SE 13 19 7 10 1025.7 - 0.0
22/08:00am 19.9 18.0 11.9 60 4.4 S 13 19 7 10 1025.7 - 0.0
22/07:30am 19.2 17.0 12.1 63 3.9 S 15 26 8 14 1025.6 - 0.0
22/07:00am 18.7 16.1 12.0 65 3.7 SSW 17 22 9 12 1025.4 - 0.0
22/06:30am 18.2 15.5 11.8 66 3.5 SSW 17 24 9 13 1025.1 - 0.0
22/06:00am 17.5 15.3 12.0 70 3.0 SSW 15 20 8 11 1025.0 1024.9 0.0
22/05:30am 17.3 15.5 12.0 71 2.9 S 13 19 7 10 1024.7 - 0.0
22/05:00am 17.0 15.4 12.7 76 2.4 S 13 24 7 13 1024.5 - 0.0
22/04:30am 16.9 15.7 12.7 76 2.3 S 11 19 6 10 1024.5 - 0.0
22/04:00am 16.7 15.6 12.1 74 2.5 S 9 13 5 7 1024.3 - 0.0
22/03:30am 17.3 16.3 12.2 72 2.8 S 9 15 5 8 1024.6 - 0.0
22/03:00am 16.5 15.1 12.1 75 2.4 SSW 11 13 6 7 1024.7 1024.6 0.0
22/02:30am 17.0 15.7 12.5 75 2.5 S 11 15 6 8 1025.0 - 0.0
22/02:00am 17.3 16.0 12.4 73 2.7 S 11 15 6 8 1025.2 - 0.0
22/01:30am 17.3 16.0 12.6 74 2.6 S 11 19 6 10 1025.4 - 0.0
22/01:00am 17.1 16.3 12.8 76 2.4 S 9 15 5 8 1025.7 - 0.0
22/12:30am 17.9 16.0 12.9 72 2.8 S 15 26 8 14 1026.2 - 0.0
22/12:00am 18.0 15.3 13.0 72 2.8 S 19 30 10 16 1026.7 1026.6 0.0
 
Date/Time
EST
Temp
°C
App
Temp
°C
Dew
Point
Rel
Hum
%
Delta-T
°C
Wind Press
QNH
hPa
Press
MSL
hPa
Rain
since 9 am
mm
Dir
 
Spd
km/h
Gust
km/h
Spd
kts
Gust
kts
21/11:30pm 17.9 15.6 12.9 72 2.8 S 17 32 9 17 1027.0 - 0.0
21/11:00pm 17.7 16.3 13.4 76 2.4 S 13 26 7 14 1027.5 - 0.0
21/10:30pm 18.5 16.1 12.8 69 3.2 SSE 17 30 9 16 1027.7 - 0.0
21/10:00pm 18.3 15.9 12.7 70 3.1 SSE 17 28 9 15 1027.6 - 0.0
21/09:30pm 18.7 16.0 12.8 68 3.3 SSE 19 28 10 15 1027.6 - 0.0
21/09:00pm 19.1 16.2 12.8 67 3.5 SE 20 35 11 19 1027.4 1027.3 0.0
21/08:30pm 19.5 16.5 12.5 64 3.9 SSE 20 33 11 18 1027.1 - 0.0
21/08:00pm 19.9 16.9 12.6 63 4.1 SSE 20 35 11 19 1026.9 - 0.0
21/07:30pm 20.2 16.2 11.9 59 4.6 SE 24 37 13 20 1026.6 - 0.0
21/07:00pm 20.4 16.8 11.9 58 4.7 SE 22 35 12 19 1026.4 - 0.0
21/06:30pm 20.6 16.7 12.0 57 4.8 SE 24 41 13 22 1026.1 - 0.0
21/06:00pm 20.6 16.7 12.0 57 4.8 SE 24 37 13 20 1025.8 1025.7 0.0
21/05:30pm 21.1 17.1 11.7 55 5.2 SE 24 41 13 22 1025.7 - 0.0
21/05:00pm 21.5 17.8 12.6 57 5.0 SE 24 37 13 20 1025.3 - 0.0
21/04:50pm 21.5 17.1 12.9 58 4.9 SE 28 48 15 26 1025.2 - 0.0
21/04:30pm 21.8 17.7 12.6 56 5.2 SE 26 39 14 21 1025.0 - 0.0
21/04:00pm 22.2 18.3 13.3 57 5.1 SE 26 50 14 27 1024.7 - 0.0
21/03:30pm 22.4 18.6 13.6 57 5.1 SE 26 48 14 26 1024.6 - 0.0
21/03:28pm 22.5 18.4 13.7 57 5.1 SE 28 48 15 26 1024.6 - 0.0
21/03:00pm 22.8 19.1 13.8 57 5.2 ESE 26 43 14 23 1024.6 1024.5 0.0
21/02:30pm 23.3 19.5 13.6 54 5.6 SE 26 43 14 23 1024.5 - 0.0
21/02:00pm 23.4 19.5 14.4 57 5.3 ESE 28 39 15 21 1024.6 - 0.0
21/01:30pm 23.6 19.2 13.0 51 6.1 ESE 28 41 15 22 1024.8 - 0.0
21/01:00pm 23.7 19.8 14.3 55 5.5 ESE 28 43 15 23 1025.1 - 0.0
21/12:49pm 24.2 19.7 13.7 52 6.1 ESE 30 48 16 26 1025.2 - 0.0
21/12:30pm 24.8 20.0 13.0 47 6.8 ESE 30 44 16 24 1025.3 - 0.0
21/12:09pm 24.9 20.5 12.9 47 6.9 ESE 28 46 15 25 1025.5 - 0.0
21/12:00pm 24.4 19.9 12.7 48 6.7 ESE 28 41 15 22 1025.7 1025.6 0.0
21/11:30am 24.3 20.2 13.9 52 6.1 ESE 28 48 15 26 1026.1 - 0.0
21/11:00am 24.3 19.9 13.0 49 6.5 SE 28 46 15 25 1026.4 - 0.0
21/10:58am 24.7 20.4 13.3 49 6.6 ESE 28 46 15 25 1026.4 - 0.0
21/10:30am 24.2 19.9 12.2 47 6.8 ESE 26 41 14 22 1026.5 - 0.0
21/10:00am 23.9 20.1 12.5 49 6.5 SE 24 37 13 20 1026.8 - 0.0
21/09:30am 23.1 19.2 12.1 50 6.2 SE 24 39 13 21 1026.9 - 0.0
21/09:00am 22.2 19.0 12.0 52 5.7 SSE 20 43 11 23 1027.1 1027.0 0.6
21/08:30am 21.4 18.4 12.7 57 4.9 SSE 20 35 11 19 1027.2 - 0.6
21/08:00am 20.6 18.6 13.8 65 3.9 SSE 17 28 9 15 1027.1 - 0.6
21/07:30am 19.5 19.0 15.8 79 2.2 SE 13 22 7 12 1026.9 - 0.6
21/07:00am 18.6 17.7 16.8 89 1.1 SE 17 30 9 16 1026.7 - 0.4
21/06:42am 18.5 16.6 16.8 90 1.0 SSE 22 35 12 19 1026.5 - 0.4
21/06:30am 18.6 17.4 16.2 86 1.4 SSE 17 28 9 15 1026.3 - 0.4
21/06:00am 18.2 18.2 16.2 88 1.2 SSE 11 24 6 13 1026.0 1025.9 0.4
21/05:30am 17.8 16.9 15.8 88 1.2 S 15 26 8 14 1025.7 - 0.2
21/05:13am 18.2 16.7 16.2 88 1.2 SSE 19 30 10 16 1025.8 - 0.2
21/05:00am 18.9 18.7 16.7 87 1.3 SE 13 20 7 11 1025.5 - 0.2
21/04:30am 19.2 19.8 16.9 86 1.4 SE 9 15 5 8 1025.2 - 0.0
21/04:00am 19.5 19.3 15.8 79 2.2 SE 11 17 6 9 1024.9 - 0.0
21/03:30am 18.8 19.3 15.6 82 1.9 ESE 7 13 4 7 1024.8 - 0.0
21/03:00am 18.7 19.0 15.1 79 2.1 SSE 7 11 4 6 1025.1 1025.0 0.0
21/02:30am 17.9 18.0 14.4 80 2.0 SSE 7 11 4 6 1025.3 - 0.0
21/02:00am 18.1 18.6 14.1 77 2.3 SSE 4 7 2 4 1025.4 - 0.0
21/01:30am 18.1 18.3 14.1 77 2.3 SSE 6 7 3 4 1025.5 - 0.0
21/01:00am 17.9 17.8 13.8 77 2.3 SSE 7 11 4 6 1025.8 - 0.0
21/12:30am 18.3 17.6 13.3 72 2.8 SSE 9 13 5 7 1026.1 - 0.0
21/12:00am 18.3 17.6 13.3 72 2.8 S 9 11 5 6 1026.5 1026.4 0.0
 
Date/Time
EST
Temp
°C
App
Temp
°C
Dew
Point
Rel
Hum
%
Delta-T
°C
Wind Press
QNH
hPa
Press
MSL
hPa
Rain
since 9 am
mm
Dir
 
Spd
km/h
Gust
km/h
Spd
kts
Gust
kts
20/11:30pm 18.3 17.3 13.3 72 2.8 S 11 13 6 7 1026.6 - 0.0
20/11:00pm 18.8 18.7 13.3 70 3.1 S 6 9 3 5 1026.7 - 0.0
20/10:30pm 19.0 18.3 13.1 68 3.3 S 9 13 5 7 1026.9 - 0.0
20/10:00pm 20.4 19.5 13.6 65 3.9 SSE 11 17 6 9 1026.9 - 0.0

Other Formats:

Comma delimited format used in spreadsheet applications
http://www.bom.gov.au/fwo/IDQ60801/IDQ60801.94578.axf

JavaScript Object Notation format (JSON) in row-major order
http://www.bom.gov.au/fwo/IDQ60801/IDQ60801.94578.json